Terminal Aerodrome Forecast
Issued by NWS Bismarck, ND

Home | Current Version | Previous Version | Text Only | Print | Product List | Glossary On
Versions: 1 2 3 4 5 6 7 8 9 10 11 12 13 14 15 16 17 18
000
FTUS43 KBIS 241435 AAC
TAFBIS
TAF AMD
KBIS 241435Z 2415/2512 28016G27KT P6SM SKC
     FM241600 29018G29KT P6SM SCT030
     FM241800 29019G30KT P6SM BKN040
     FM250000 30014G19KT P6SM BKN050
     FM250500 31010KT P6SM BKN025=

USA.gov is the U.S. government's official web portal to all federal, state and local government web resources and services.